Time;durP1;ratioP1;P1;durP2;ratioP2;P2;SDS_P1;SDS_P2;PMS_P1;PMS_P2;Temp;Humidity;BMP_temperature;BMP_pressure;BME280_temperature;BME280_humidity;BME280_pressure;Samples;Min_cycle;Max_cycle;Signal;HPM_P1;HPM_P2
2022/06/19 00:00:42;;;;;;;;;16.00;14.00;;;;;17.35;77.47;99947.88;6277964;20;2485664;-65
2022/06/19 00:03:30;;;;;;;;;17.33;15.33;;;;;17.53;76.16;99942.72;6282810;20;3550254;-64
2022/06/19 00:06:00;;;;;;;;;14.00;13.50;;;;;17.87;73.80;99942.53;6283817;20;2795211;-65
2022/06/19 00:08:30;;;;;;;;;15.00;15.00;;;;;17.92;72.86;99942.97;6286752;20;2812782;-65
2022/06/19 00:11:00;;;;;;;;;13.67;13.67;;;;;17.71;73.60;99942.97;6281437;20;3533731;-65
2022/06/19 00:13:29;;;;;;;;;11.33;11.33;;;;;17.83;73.37;99946.53;6279484;20;3528380;-65
2022/06/19 00:15:59;;;;;;;;;13.67;13.33;;;;;17.60;74.65;99952.06;6312307;20;3533811;-65
2022/06/19 00:18:28;;;;;;;;;16.00;14.33;;;;;17.34;75.84;99955.16;6284460;20;3546100;-64
2022/06/19 00:20:57;;;;;;;;;16.00;15.33;;;;;17.44;76.08;99944.38;6283030;20;3537760;-65
2022/06/19 00:23:25;;;;;;;;;13.00;13.00;;;;;17.34;76.79;99952.44;6284142;20;2491937;-65
2022/06/19 00:25:54;;;;;;;;;17.33;16.33;;;;;17.34;75.51;99952.44;6285645;20;3569014;-65
2022/06/19 00:28:22;;;;;;;;;12.50;12.50;;;;;16.97;76.84;99943.84;6286930;20;2798268;-65
2022/06/19 00:30:51;;;;;;;;;17.33;14.33;;;;;16.94;77.39;99948.69;6283286;20;2819420;-65
2022/06/19 00:33:20;;;;;;;;;15.00;13.33;;;;;16.84;78.30;99948.59;6314058;20;3530503;-65
2022/06/19 00:35:48;;;;;;;;;14.00;14.00;;;;;16.45;80.76;99949.00;6282496;20;3536064;-65
2022/06/19 00:38:17;;;;;;;;;12.33;12.33;;;;;16.29;82.16;99942.28;6282911;20;3520047;-65
2022/06/19 00:40:45;;;;;;;;;7.00;5.00;;;;;16.17;82.87;99938.72;6316446;20;2739845;-65
2022/06/19 00:43:13;;;;;;;;;14.33;14.33;;;;;16.06;83.64;99944.13;6282892;20;3542018;-65
2022/06/19 00:45:50;;;;;;;;;16.00;16.00;;;;;16.07;83.15;99943.16;6282904;20;2831543;-65
2022/06/19 00:48:33;;;;;;;;;16.67;16.67;;;;;16.29;82.90;99932.28;6284555;20;3556539;-64
2022/06/19 00:51:05;;;;;;;;;15.67;13.67;;;;;16.31;82.82;99929.47;6278890;20;3546118;-65
2022/06/19 00:53:44;;;;;;;;;16.67;15.00;;;;;16.24;82.58;99929.09;6278928;20;3557510;-65
2022/06/19 00:56:18;;;;;;;;;16.50;15.50;;;;;16.23;83.00;99921.97;6280623;20;2496078;-65
2022/06/19 00:58:50;;;;;;;;;12.00;12.00;;;;;16.02;84.17;99924.56;6285334;20;2811722;-65
2022/06/19 01:01:24;;;;;;;;;14.67;14.67;;;;;15.86;84.65;99918.66;6278819;20;3533753;-65
2022/06/19 01:04:26;;;;;;;;;15.33;14.33;;;;;15.94;84.93;99927.88;6310934;20;3540875;-65
2022/06/19 01:06:55;;;;;;;;;14.67;13.33;;;;;16.48;82.36;99919.94;6279712;20;3525345;-65
2022/06/19 01:09:23;;;;;;;;;16.00;16.00;;;;;16.46;81.55;99910.09;6312553;20;2492027;-65
2022/06/19 01:11:51;;;;;;;;;18.50;17.00;;;;;16.51;81.92;99909.72;6274818;20;2496163;-64
2022/06/19 01:14:24;;;;;;;;;16.50;16.50;;;;;16.64;81.20;99917.66;6281716;20;2500798;-64
2022/06/19 01:16:51;;;;;;;;;18.50;16.50;;;;;16.67;81.22;99914.72;6278250;20;2483585;-64
2022/06/19 01:19:28;;;;;;;;;16.00;16.00;;;;;16.40;81.85;99913.31;6284141;20;3562755;-64
2022/06/19 01:22:17;;;;;;;;;17.00;16.50;;;;;16.41;82.38;99915.03;6280628;20;2487835;-64
2022/06/19 01:25:17;;;;;;;;;17.00;16.00;;;;;16.43;82.54;99915.78;6281684;20;2492020;-64
2022/06/19 01:30:44;;;;;;;;;13.00;13.00;;;;;16.43;81.50;99909.50;6281029;20;3538170;-64
2022/06/19 01:33:21;;;;;;;;;19.00;14.67;;;;;15.95;84.30;99902.50;6278643;20;3554461;-65
2022/06/19 01:35:51;;;;;;;;;16.33;14.67;;;;;15.73;86.10;99906.09;6284168;20;2821126;-64
2022/06/19 01:38:24;;;;;;;;;13.67;13.67;;;;;15.93;85.69;99909.03;6308833;20;3531536;-64
2022/06/19 01:41:03;;;;;;;;;15.33;15.00;;;;;15.99;84.94;99909.41;6275515;20;3540904;-64
2022/06/19 01:43:31;;;;;;;;;14.50;14.50;;;;;15.96;84.93;99901.53;6277973;20;2496094;-64
2022/06/19 01:46:02;;;;;;;;;16.00;16.00;;;;;15.98;84.51;99902.28;6281128;20;2827371;-64
2022/06/19 01:48:33;;;;;;;;;15.67;15.00;;;;;15.85;85.21;99900.66;6279529;20;3537859;-64
2022/06/19 01:51:05;;;;;;;;;14.00;14.00;;;;;15.66;86.49;99906.66;6278172;20;3535664;-64
2022/06/19 01:53:59;;;;;;;;;21.00;17.00;;;;;15.58;86.66;99894.56;6279523;20;2489837;-64
2022/06/19 01:56:29;;;;;;;;;15.33;14.33;;;;;15.57;86.93;99903.69;6279638;20;3544093;-65
2022/06/19 01:59:07;;;;;;;;;15.67;15.67;;;;;15.71;86.21;99902.63;6283200;20;2825248;-64
2022/06/19 02:01:38;;;;;;;;;18.67;17.00;;;;;15.48;87.20;99899.03;6309392;20;3566925;-64
2022/06/19 02:04:08;;;;;;;;;15.67;15.67;;;;;15.27;88.19;99896.16;6279016;20;3552339;-64
2022/06/19 02:06:48;;;;;;;;;15.00;13.67;;;;;15.45;87.98;99901.09;6281499;20;3560639;-64
2022/06/19 02:09:21;;;;;;;;;15.00;15.00;;;;;15.47;87.99;99889.16;6280001;20;2812866;-64
2022/06/19 02:11:50;;;;;;;;;16.00;15.00;;;;;15.32;88.33;99901.19;6279724;20;3550257;-64
2022/06/19 02:14:20;;;;;;;;;18.50;13.50;;;;;15.19;88.90;99890.44;6285506;20;2806489;-65
2022/06/19 02:16:49;;;;;;;;;15.33;15.33;;;;;15.20;89.56;99894.03;6279949;20;3548175;-65
2022/06/19 02:19:19;;;;;;;;;18.50;18.50;;;;;15.36;88.38;99886.44;6277567;20;2830465;-65
2022/06/19 02:21:52;;;;;;;;;20.00;14.50;;;;;15.19;88.38;99892.28;6275173;20;2491924;-65
2022/06/19 02:24:26;;;;;;;;;18.00;17.50;;;;;15.07;88.81;99884.16;6276562;20;2487752;-64
2022/06/19 02:26:57;;;;;;;;;16.00;16.00;;;;;15.06;88.98;99887.84;6274932;20;2827337;-64
2022/06/19 02:29:25;;;;;;;;;14.00;14.00;;;;;15.05;89.00;99890.66;6277803;20;2802361;-65
2022/06/19 02:31:56;;;;;;;;;14.67;14.67;;;;;14.88;89.45;99883.84;6277018;20;3542020;-64
2022/06/19 02:34:39;;;;;;;;;16.00;16.00;;;;;15.02;89.59;99880.09;6275643;20;3566907;-65
2022/06/19 02:37:23;;;;;;;;;16.00;14.50;;;;;15.08;89.51;99880.47;6281019;20;2806530;-64
2022/06/19 02:40:23;;;;;;;;;16.00;15.00;;;;;15.01;89.23;99887.34;6277324;20;3550438;-64
2022/06/19 02:42:51;;;;;;;;;18.00;15.00;;;;;14.65;91.46;99878.34;6282488;20;2807740;-64
2022/06/19 02:45:29;;;;;;;;;16.00;16.00;;;;;14.69;91.21;99884.38;6278613;20;2491972;-65
2022/06/19 02:48:00;;;;;;;;;17.33;13.67;;;;;14.59;91.98;99889.63;6277666;20;3538788;-65
2022/06/19 02:50:34;;;;;;;;;14.67;14.67;;;;;14.67;91.68;99889.91;6277605;20;3527351;-65
2022/06/19 02:53:03;;;;;;;;;20.67;17.00;;;;;14.58;92.11;99881.63;6295388;20;3558673;-65
2022/06/19 02:55:32;;;;;;;;;19.00;19.00;;;;;14.81;90.90;99885.28;6312326;20;3562809;-64
2022/06/19 02:57:59;;;;;;;;;18.50;15.50;;;;;14.78;91.02;99882.84;6305141;20;2496132;-64
2022/06/19 03:00:30;;;;;;;;;21.33;17.33;;;;;14.69;91.19;99885.25;6277779;20;3566875;-64
2022/06/19 03:03:18;;;;;;;;;14.67;14.67;;;;;15.13;89.38;99882.81;6281964;20;3530449;-64
2022/06/19 03:05:45;;;;;;;;;18.00;16.00;;;;;15.09;89.25;99887.63;6309400;20;2483670;-64
2022/06/19 03:08:13;;;;;;;;;16.00;16.00;;;;;15.16;89.41;99879.88;6278799;20;2491959;-64
2022/06/19 03:10:41;;;;;;;;;16.50;15.00;;;;;15.15;89.24;99880.88;6276185;20;2489983;-64
2022/06/19 03:13:10;;;;;;;;;15.67;13.67;;;;;15.02;90.23;99880.94;6279041;20;3539863;-64
2022/06/19 03:15:39;;;;;;;;;13.67;13.67;;;;;15.62;86.84;99881.69;6280789;20;3529424;-64
2022/06/19 03:18:08;;;;;;;;;16.00;16.00;;;;;15.49;87.46;99875.53;6277652;20;3504392;-65
2022/06/19 03:20:36;;;;;;;;;16.00;14.00;;;;;15.55;88.01;99873.19;6308301;20;3538770;-65
2022/06/19 03:23:05;;;;;;;;;16.00;16.00;;;;;15.42;89.13;99868.88;6310750;20;3557642;-64
2022/06/19 03:25:34;;;;;;;;;16.50;16.50;;;;;15.40;88.54;99868.97;6308212;20;2831535;-65
2022/06/19 03:28:03;;;;;;;;;17.67;16.33;;;;;15.52;87.79;99865.31;6276117;20;3540843;-65
2022/06/19 03:30:31;;;;;;;;;17.67;15.67;;;;;15.59;87.88;99866.56;6277635;20;3563174;-64
2022/06/19 03:33:00;;;;;;;;;17.00;17.00;;;;;15.77;87.71;99866.06;6279204;20;2837825;-64
2022/06/19 03:35:29;;;;;;;;;16.50;15.00;;;;;15.64;88.36;99859.88;6286077;20;2813814;-64
2022/06/19 03:37:57;;;;;;;;;15.33;15.33;;;;;15.93;87.33;99858.47;6285699;20;3537726;-65
2022/06/19 03:40:26;;;;;;;;;18.33;16.00;;;;;15.94;86.76;99867.44;6281449;20;3556490;-64
2022/06/19 03:42:55;;;;;;;;;14.00;14.00;;;;;15.95;87.59;99870.00;6286448;20;3532514;-64
2022/06/19 03:45:24;;;;;;;;;19.00;16.33;;;;;16.20;86.01;99870.72;6313389;20;3566894;-65
2022/06/19 03:47:52;;;;;;;;;17.00;17.00;;;;;16.14;87.79;99869.41;6284241;20;2827338;-64
2022/06/19 03:50:21;;;;;;;;;16.00;16.00;;;;;16.13;87.27;99864.94;6286377;20;2824489;-64
2022/06/19 03:52:49;;;;;;;;;15.67;15.67;;;;;16.41;86.22;99865.41;6313944;20;3557574;-64
2022/06/19 03:55:17;;;;;;;;;15.50;15.50;;;;;16.34;86.93;99873.16;6280937;20;2812858;-65
2022/06/19 03:57:46;;;;;;;;;17.33;16.00;;;;;16.46;85.67;99877.56;6283963;20;3563833;-64
2022/06/19 04:00:18;;;;;;;;;16.00;16.00;;;;;16.56;85.52;99879.50;6284319;20;2814900;-64
2022/06/19 04:02:47;;;;;;;;;19.50;16.00;;;;;16.44;86.75;99875.97;6281328;20;2831522;-65
2022/06/19 04:05:18;;;;;;;;;18.50;18.50;;;;;16.28;86.62;99875.53;6283943;20;2844076;-64
2022/06/19 04:07:49;;;;;;;;;19.00;18.00;;;;;16.58;85.55;99882.94;6284610;20;2824288;-64
2022/06/19 04:10:22;;;;;;;;;17.50;17.50;;;;;16.28;86.60;99875.53;6282966;20;2827425;-64
2022/06/19 04:12:54;;;;;;;;;17.67;17.67;;;;;16.48;86.45;99882.00;6280022;20;3575258;-64
2022/06/19 04:15:23;;;;;;;;;16.67;16.33;;;;;16.50;86.77;99885.44;6284928;20;3554435;-64
2022/06/19 04:17:50;;;;;;;;;18.50;18.50;;;;;16.79;85.91;99889.31;6280211;20;2492027;-65
2022/06/19 04:20:19;;;;;;;;;22.00;21.00;;;;;16.82;86.08;99889.03;6279666;20;2839902;-64
2022/06/19 04:22:48;;;;;;;;;27.00;22.33;;;;;17.20;84.89;99882.22;6283607;20;3589925;-63
2022/06/19 04:25:18;;;;;;;;;27.67;23.33;;;;;17.31;83.82;99875.88;6284223;20;3579413;-64
2022/06/19 04:27:46;;;;;;;;;25.00;23.67;;;;;17.34;83.56;99876.44;6316121;20;3604405;-64
2022/06/19 04:30:22;;;;;;;;;26.00;23.67;;;;;17.36;84.28;99872.75;6285417;20;3586745;-64
2022/06/19 04:32:50;;;;;;;;;26.00;23.67;;;;;17.41;83.72;99876.78;6286234;20;3580890;-64
2022/06/19 04:35:20;;;;;;;;;21.33;20.00;;;;;17.65;81.47;99878.34;6282974;20;2830590;-64
2022/06/19 04:37:47;;;;;;;;;16.00;16.00;;;;;17.74;80.66;99877.53;6312186;20;2483600;-64
2022/06/19 04:40:16;;;;;;;;;19.50;19.00;;;;;17.80;80.52;99882.47;6281758;20;2828381;-63
2022/06/19 04:42:45;;;;;;;;;16.00;15.00;;;;;18.12;79.50;99885.03;6282907;20;2815874;-63
2022/06/19 04:45:13;;;;;;;;;19.50;18.50;;;;;18.07;80.67;99873.69;6280688;20;2483568;-63
2022/06/19 04:47:41;;;;;;;;;17.00;14.00;;;;;18.50;76.87;99875.22;6281147;20;2492026;-64
2022/06/19 04:50:10;;;;;;;;;14.67;14.67;;;;;18.73;74.95;99881.28;6280632;20;3535685;-63
2022/06/19 04:52:38;;;;;;;;;14.67;14.67;;;;;18.67;76.66;99886.41;6283820;20;3533561;-63
2022/06/19 04:55:09;;;;;;;;;14.00;14.00;;;;;18.94;76.63;99883.91;6313299;20;3540897;-63
2022/06/19 04:57:39;;;;;;;;;18.00;15.00;;;;;18.91;76.61;99889.63;6281735;20;2816978;-62
2022/06/19 05:00:15;;;;;;;;;15.00;13.50;;;;;19.29;74.05;99896.03;6284589;20;2796136;-62
2022/06/19 05:02:43;;;;;;;;;14.50;14.50;;;;;19.08;74.78;99897.06;6285902;20;2483701;-63
2022/06/19 05:05:19;;;;;;;;;11.00;11.00;;;;;19.44;73.04;99899.19;6282466;20;3539912;-63
2022/06/19 05:07:48;;;;;;;;;14.00;14.00;;;;;19.83;72.03;99897.25;6281065;20;3527360;-62
2022/06/19 05:10:17;;;;;;;;;16.00;15.00;;;;;20.09;71.65;99896.53;6280551;20;2489867;-60
2022/06/19 05:12:45;;;;;;;;;16.67;14.33;;;;;20.51;70.83;99902.38;6280289;20;3538767;-62
2022/06/19 05:15:14;;;;;;;;;12.00;12.00;;;;;20.67;69.62;99911.75;6283726;20;3521313;-62
2022/06/19 05:17:43;;;;;;;;;11.00;11.00;;;;;20.96;68.03;99911.56;6280992;20;3507608;-63
2022/06/19 05:20:12;;;;;;;;;12.50;12.00;;;;;21.03;68.67;99907.19;6312677;20;2492066;-63
2022/06/19 05:22:41;;;;;;;;;11.33;11.33;;;;;21.26;67.44;99910.28;6281615;20;3527403;-63
2022/06/19 05:25:11;;;;;;;;;13.67;12.00;;;;;21.22;67.92;99909.75;6280353;20;3524353;-62
2022/06/19 05:27:41;;;;;;;;;12.00;12.00;;;;;21.46;67.13;99908.28;6313373;20;3525248;-60
2022/06/19 05:30:13;;;;;;;;;10.33;10.00;;;;;21.87;65.14;99914.84;6280039;20;3508557;-62
2022/06/19 05:32:42;;;;;;;;;11.33;11.33;;;;;22.23;64.98;99916.63;6316073;20;2795171;-63
2022/06/19 05:35:11;;;;;;;;;13.00;12.00;;;;;22.09;66.46;99921.66;6312652;20;3535871;-62
2022/06/19 05:37:40;;;;;;;;;12.67;12.00;;;;;22.56;64.97;99914.84;6280210;20;3529431;-59
2022/06/19 05:40:10;;;;;;;;;14.00;12.00;;;;;22.88;64.13;99916.84;6283939;20;2603448;-62
2022/06/19 05:42:38;;;;;;;;;11.33;11.33;;;;;22.79;63.25;99923.31;6314439;20;2791910;-62
2022/06/19 05:45:08;;;;;;;;;13.67;13.00;;;;;23.02;63.26;99928.19;6313935;20;3532525;-59
2022/06/19 05:47:38;;;;;;;;;11.00;10.80;;;;;22.92;63.02;99918.22;6302070;20;2786716;-58
2022/06/19 05:50:07;;;;;;;;;12.00;12.00;;;;;23.41;62.34;99922.91;6281981;20;3525375;-62
2022/06/19 05:52:36;;;;;;;;;8.67;8.67;;;;;23.45;60.96;99933.34;6320169;20;2754420;-60
2022/06/19 05:55:06;;;;;;;;;11.33;11.33;;;;;23.80;61.84;99925.81;6313939;20;2483688;-59
2022/06/19 05:57:35;;;;;;;;;11.00;11.00;;;;;24.28;59.39;99926.72;6313144;20;2789835;-62
2022/06/19 06:00:08;;;;;;;;;11.00;11.00;;;;;24.56;58.46;99917.19;6316054;20;2790074;-61
2022/06/19 06:02:37;;;;;;;;;11.00;10.00;;;;;24.63;57.60;99932.75;6311699;20;3512745;-61
2022/06/19 06:05:10;;;;;;;;;12.00;10.80;;;;;24.88;57.26;99924.38;6338876;20;2788918;-61
2022/06/19 06:07:39;;;;;;;;;9.00;9.00;;;;;24.83;57.20;99930.44;6281540;20;2756655;-62
2022/06/19 06:10:10;;;;;;;;;12.00;10.67;;;;;25.21;55.84;99933.28;6309178;20;2790154;-61
2022/06/19 06:12:39;;;;;;;;;12.33;10.00;;;;;25.31;56.24;99928.41;6311703;20;2784627;-62
2022/06/19 06:15:10;;;;;;;;;9.20;8.20;;;;;25.24;55.97;99932.06;6337235;20;2759621;-61
2022/06/19 06:17:38;;;;;;;;;4.00;3.00;;;;;25.60;54.62;99933.13;6288398;20;2736764;-61
2022/06/19 06:20:07;;;;;;;;;11.67;10.33;;;;;25.96;55.08;99937.09;6315944;20;2790146;-61
2022/06/19 06:22:36;;;;;;;;;10.67;10.67;;;;;26.04;56.64;99929.63;6309968;20;3521142;-61
2022/06/19 06:25:06;;;;;;;;;12.00;10.33;;;;;26.47;51.73;99929.78;6311124;20;3515897;-60
2022/06/19 06:27:35;;;;;;;;;10.00;10.00;;;;;26.62;52.81;99932.56;6319494;20;2792012;-61
2022/06/19 06:30:07;;;;;;;;;10.33;10.33;;;;;26.86;51.61;99934.13;6316792;20;2789899;-61
2022/06/19 06:32:36;;;;;;;;;9.00;7.67;;;;;27.44;50.85;99941.56;6311851;20;2739895;-61
2022/06/19 06:35:06;;;;;;;;;10.00;10.00;;;;;27.56;49.26;99943.56;6319325;20;2784664;-61
2022/06/19 06:37:34;;;;;;;;;11.33;11.33;;;;;27.50;50.19;99938.00;6310795;20;3531501;-62
2022/06/19 06:40:08;;;;;;;;;7.00;7.00;;;;;27.66;49.38;99940.47;6304064;20;2746643;-61
2022/06/19 06:42:36;;;;;;;;;11.00;11.00;;;;;27.92;50.40;99950.03;6281933;20;2471074;-60
2022/06/19 06:45:07;;;;;;;;;10.33;10.33;;;;;27.92;50.51;99944.53;6312922;20;2783607;-60
2022/06/19 06:47:35;;;;;;;;;9.00;9.00;;;;;28.18;46.48;99944.69;6314101;20;2757551;-61
2022/06/19 06:50:04;;;;;;;;;7.33;7.33;;;;;28.24;48.89;99937.50;6322909;20;2742076;-61
2022/06/19 06:52:33;;;;;;;;;8.00;8.00;;;;;28.20;46.98;99942.59;6319853;20;2734773;-61
2022/06/19 06:55:02;;;;;;;;;7.00;7.00;;;;;28.76;44.82;99943.53;6306286;20;2740989;-61
2022/06/19 06:57:30;;;;;;;;;8.33;8.00;;;;;28.91;45.17;99938.69;6298419;20;2742951;-61
2022/06/19 06:59:59;;;;;;;;;9.00;7.00;;;;;28.93;44.55;99942.09;6298553;20;2753433;-62
2022/06/19 07:02:28;;;;;;;;;8.67;8.00;;;;;28.87;44.62;99940.16;6301137;20;2748204;-60
2022/06/19 07:04:56;;;;;;;;;9.00;9.00;;;;;29.17;45.48;99942.63;6303753;20;2742983;-61
2022/06/19 07:07:25;;;;;;;;;9.00;8.00;;;;;29.15;43.22;99933.66;6308114;20;2754480;-59
2022/06/19 07:09:53;;;;;;;;;9.00;7.33;;;;;29.25;43.07;99936.88;6320146;20;2757570;-61
2022/06/19 07:12:23;;;;;;;;;6.00;6.00;;;;;28.72;39.76;99939.47;6339223;20;2746547;-62
2022/06/19 07:14:52;;;;;;;;;8.00;8.00;;;;;29.59;40.09;99938.63;6281042;20;2750312;-63
2022/06/19 07:17:22;;;;;;;;;5.20;5.20;;;;;29.19;36.98;99946.88;6334829;20;2739922;-60
2022/06/19 07:19:53;;;;;;;;;7.40;7.40;;;;;29.50;38.09;99954.59;6303263;20;2737816;-59
2022/06/19 07:22:22;;;;;;;;;6.00;6.00;;;;;30.00;36.47;99959.72;6304697;20;2740096;-62
2022/06/19 07:24:50;;;;;;;;;7.00;6.00;;;;;29.39;37.04;99954.38;6279355;20;2748266;-62
2022/06/19 07:27:22;;;;;;;;;8.00;6.33;;;;;30.12;36.22;99946.06;6310023;20;2745245;-63
2022/06/19 07:29:51;;;;;;;;;8.33;5.33;;;;;29.97;36.30;99951.88;6307714;20;2745067;-63
2022/06/19 07:32:20;;;;;;;;;5.00;5.00;;;;;29.83;35.01;99942.69;6312068;20;2736897;-62
2022/06/19 07:34:48;;;;;;;;;6.00;5.00;;;;;30.36;36.33;99942.66;6311669;20;2732537;-61
2022/06/19 07:37:17;;;;;;;;;6.00;6.00;;;;;29.82;34.79;99941.00;6315162;20;2743048;-62
2022/06/19 07:39:46;;;;;;;;;5.67;5.67;;;;;30.59;33.92;99942.13;6311064;20;2739864;-64
2022/06/19 07:42:15;;;;;;;;;5.33;5.33;;;;;29.55;34.92;99945.66;6312578;20;2738896;-62
2022/06/19 07:44:43;;;;;;;;;7.00;7.00;;;;;29.42;35.72;99946.50;6313677;20;2735733;-58
2022/06/19 07:50:17;;;;;;;;;7.00;7.00;;;;;30.50;35.25;99942.63;6280055;20;2748274;-60
2022/06/19 07:52:50;;;;;;;;;6.00;6.00;;;;;30.91;33.00;99949.72;6313446;20;2748201;-60
2022/06/19 07:55:30;;;;;;;;;7.00;6.00;;;;;30.57;33.61;99940.66;6333819;20;2741912;-61
2022/06/19 07:58:00;;;;;;;;;9.33;8.00;;;;;30.42;34.25;99940.09;6278822;20;2750258;-62
2022/06/19 08:00:35;;;;;;;;;6.00;6.00;;;;;30.26;34.11;99942.25;6305884;20;2738465;-62
2022/06/19 08:03:05;;;;;;;;;7.00;7.00;;;;;30.67;35.13;99946.56;6312120;20;2750281;-60
2022/06/19 08:05:37;;;;;;;;;5.67;5.67;;;;;30.31;34.85;99933.28;6311350;20;2738938;-59
2022/06/19 08:08:18;;;;;;;;;5.33;5.33;;;;;30.47;33.74;99931.97;6313026;20;2740918;-61
2022/06/19 08:10:51;;;;;;;;;6.67;6.67;;;;;30.47;33.72;99926.44;6310936;20;2733684;-60
2022/06/19 08:13:27;;;;;;;;;5.33;5.33;;;;;30.27;33.99;99920.94;6313694;20;2738826;-60
2022/06/19 08:16:09;;;;;;;;;6.00;6.00;;;;;30.94;34.25;99927.06;6312828;20;2746146;-61
2022/06/19 08:18:39;;;;;;;;;7.00;7.00;;;;;31.10;32.92;99921.03;6308831;20;2744170;-62
2022/06/19 08:21:07;;;;;;;;;9.00;6.67;;;;;31.16;33.66;99925.66;6308850;20;2748272;-61
2022/06/19 08:23:36;;;;;;;;;5.67;5.67;;;;;30.91;32.90;99916.44;6313553;20;2736772;-62
2022/06/19 08:26:04;;;;;;;;;6.00;6.00;;;;;30.94;32.87;99921.53;6319923;20;2741004;-62
2022/06/19 08:28:37;;;;;;;;;4.67;4.67;;;;;30.83;32.92;99912.00;6309813;20;2744053;-62
2022/06/19 08:31:06;;;;;;;;;4.67;4.67;;;;;31.48;32.82;99917.38;6309657;20;2720139;-61
2022/06/19 08:33:36;;;;;;;;;5.40;5.00;;;;;31.06;31.71;99909.50;6335482;20;2737756;-62
2022/06/19 08:36:10;;;;;;;;;7.33;6.67;;;;;31.21;32.01;99908.38;6283578;20;2748214;-62
2022/06/19 08:38:51;;;;;;;;;4.67;4.67;;;;;31.43;31.58;99915.25;6313079;20;2739856;-62
2022/06/19 08:41:40;;;;;;;;;6.33;5.00;;;;;31.56;31.45;99908.75;6307015;20;2746201;-61
2022/06/19 08:44:32;;;;;;;;;3.67;3.67;;;;;31.87;31.00;99904.22;6310675;20;2739869;-62
2022/06/19 08:47:52;;;;;;;;;5.67;5.67;;;;;30.86;31.81;99903.25;6310134;20;2739939;-63
2022/06/19 08:50:43;;;;;;;;;6.33;6.33;;;;;31.31;32.14;99911.50;6308256;20;2742948;-62
2022/06/19 08:53:42;;;;;;;;;6.00;6.00;;;;;30.90;31.15;99909.19;6309623;20;2737789;-62
2022/06/19 08:56:46;;;;;;;;;6.00;6.00;;;;;31.66;30.96;99906.31;6310904;20;2734094;-62
2022/06/19 09:00:15;;;;;;;;;5.00;5.00;;;;;30.91;32.16;99897.00;6308962;20;2739833;-61
2022/06/19 09:03:07;;;;;;;;;5.33;5.33;;;;;31.36;31.71;99900.56;6309292;20;2740876;-62
2022/06/19 09:06:11;;;;;;;;;6.00;5.00;;;;;30.29;31.36;99889.19;6332142;20;2740923;-62
2022/06/19 09:08:49;;;;;;;;;6.67;6.00;;;;;30.44;31.44;99893.59;6276126;20;2739985;-61
2022/06/19 09:12:01;;;;;;;;;7.00;6.00;;;;;31.04;30.89;99905.25;6309682;20;2744046;-61
2022/06/19 09:14:47;;;;;;;;;6.00;6.00;;;;;31.36;31.76;99902.47;6308345;20;2741946;-61
2022/06/19 09:17:56;;;;;;;;;5.33;5.33;;;;;31.54;30.71;99899.78;6308790;20;2734701;-61
2022/06/19 09:21:00;;;;;;;;;5.67;5.67;;;;;31.21;31.14;99900.88;6314287;20;2746119;-60
2022/06/19 09:24:18;;;;;;;;;7.00;7.00;;;;;32.00;29.89;99903.25;6306396;20;2733646;-61
2022/06/19 09:26:57;;;;;;;;;4.33;4.33;;;;;31.82;30.31;99901.28;6310431;20;2742134;-61
2022/06/19 09:29:51;;;;;;;;;6.00;6.00;;;;;32.45;29.69;99900.19;6310563;20;2731663;-63
2022/06/19 09:32:37;;;;;;;;;5.00;5.00;;;;;31.79;29.53;99894.25;6306831;20;2735772;-62
2022/06/19 09:35:39;;;;;;;;;4.00;4.00;;;;;32.08;30.19;99878.81;6311183;20;2754485;-61
2022/06/19 09:38:22;;;;;;;;;4.67;4.00;;;;;31.55;29.66;99890.41;6307860;20;2753529;-63
2022/06/19 09:41:00;;;;;;;;;3.40;3.40;;;;;31.40;28.87;99876.00;6330118;20;2732576;-68
2022/06/19 09:43:56;;;;;;;;;4.67;4.67;;;;;31.68;29.78;99876.41;6308497;20;2729451;-65
2022/06/19 09:46:43;;;;;;;;;5.67;5.67;;;;;31.51;30.40;99872.50;6306602;20;2739938;-65
2022/06/19 09:49:29;;;;;;;;;5.60;5.60;;;;;31.81;29.66;99869.00;6333964;20;2735072;-65
2022/06/19 09:52:12;;;;;;;;;4.00;4.00;;;;;32.04;29.00;99865.59;6299338;20;2733681;-64
2022/06/19 09:54:54;;;;;;;;;3.40;3.40;;;;;31.59;29.61;99863.88;6301226;20;2748222;-66
2022/06/19 09:58:30;;;;;;;;;4.67;4.67;;;;;32.14;28.83;99858.41;6277218;20;2744034;-63
2022/06/19 10:01:03;;;;;;;;;5.20;5.20;;;;;31.35;29.10;99859.16;6332256;20;2734754;-64
2022/06/19 10:03:45;;;;;;;;;4.00;4.00;;;;;31.49;29.58;99855.22;6298962;20;2740904;-65
2022/06/19 10:06:50;;;;;;;;;5.00;4.00;;;;;31.79;29.54;99862.84;6279079;20;2741946;-66
2022/06/19 10:09:59;;;;;;;;;4.00;4.00;;;;;32.43;29.56;99858.72;6307095;20;2749225;-66
2022/06/19 10:12:44;;;;;;;;;5.00;4.00;;;;;31.88;28.90;99858.69;6303709;20;2738932;-65
2022/06/19 10:15:31;;;;;;;;;3.60;2.60;;;;;31.70;28.84;99854.81;6328713;20;2740898;-64
2022/06/19 10:18:47;;;;;;;;;3.80;3.80;;;;;32.56;28.89;99852.16;6300703;20;2741923;-65
2022/06/19 10:22:14;;;;;;;;;3.00;3.00;;;;;32.22;27.75;99853.63;6271454;20;2737782;-63
2022/06/19 10:25:28;;;;;;;;;3.00;3.00;;;;;32.35;28.86;99850.69;6304791;20;2733658;-63
2022/06/19 10:28:39;;;;;;;;;5.33;3.00;;;;;32.36;28.18;99847.69;6306104;20;2739932;-65
2022/06/19 10:32:22;;;;;;;;;5.33;5.33;;;;;31.95;28.49;99837.28;6297667;20;2744210;-64
2022/06/19 10:35:28;;;;;;;;;4.00;4.00;;;;;31.84;29.09;99836.09;6300929;20;2742006;-64
2022/06/19 10:38:39;;;;;;;;;4.60;4.60;;;;;31.96;28.67;99830.63;6324464;20;2735832;-64
2022/06/19 10:45:01;;;;;;;;;5.00;5.00;;;;;32.99;26.64;99823.28;6306995;20;2744031;-65
2022/06/19 10:48:09;;;;;;;;;4.00;4.00;;;;;33.04;27.39;99823.47;6313055;20;2748297;-64
2022/06/19 10:51:35;;;;;;;;;19.86;14.43;;;;;32.14;27.25;99827.84;6325568;20;2870090;-65
2022/06/19 10:54:14;;;;;;;;;3.67;3.67;;;;;32.45;27.33;99817.63;6274466;20;2736888;-62
2022/06/19 10:57:22;;;;;;;;;1.33;1.33;;;;;31.95;27.92;99801.19;6308571;20;2732087;-66
2022/06/19 10:59:52;;;;;;;;;4.33;4.33;;;;;32.55;27.72;99806.84;6307373;20;2733644;-66
2022/06/19 11:06:19;;;;;;;;;5.20;4.40;;;;;32.72;27.93;99790.31;6298746;20;2723325;-66
2022/06/19 11:09:07;;;;;;;;;2.60;2.60;;;;;32.25;27.99;99789.25;6298570;20;2744115;-65
2022/06/19 11:11:39;;;;;;;;;5.00;4.00;;;;;32.86;26.75;99796.56;6275606;20;2734792;-65
2022/06/19 11:14:38;;;;;;;;;5.00;5.00;;;;;32.39;27.62;99793.56;6305652;20;2745078;-66
2022/06/19 11:17:31;;;;;;;;;3.00;3.00;;;;;32.06;28.31;99791.22;6328687;20;2741913;-65
2022/06/19 11:20:27;;;;;;;;;3.00;3.00;;;;;32.73;27.72;99780.91;6300078;20;2737774;-66
2022/06/19 11:23:53;;;;;;;;;4.40;3.00;;;;;33.15;26.21;99788.38;6298691;20;2737913;-64
2022/06/19 11:26:41;;;;;;;;;4.00;4.00;;;;;32.26;27.72;99780.69;6274971;20;2745079;-58
2022/06/19 11:29:21;;;;;;;;;7.00;3.67;;;;;32.49;27.24;99785.56;6305081;20;2747198;-59
2022/06/19 11:32:15;;;;;;;;;4.00;4.00;;;;;32.66;27.38;99784.88;6304174;20;2752389;-58
2022/06/19 11:35:00;;;;;;;;;2.00;2.00;;;;;32.03;26.55;99775.84;6304460;20;2746280;-59
2022/06/19 11:38:03;;;;;;;;;3.33;3.33;;;;;32.36;27.75;99774.56;6306968;20;2741987;-58
2022/06/19 11:40:38;;;;;;;;;3.67;3.00;;;;;32.38;27.31;99780.75;6307010;20;2745188;-58
2022/06/19 11:43:31;;;;;;;;;3.60;3.60;;;;;32.37;27.05;99779.06;6332983;20;2735666;-58
2022/06/19 11:46:25;;;;;;;;;5.80;4.20;;;;;32.28;27.85;99773.00;6297037;20;2745037;-59
2022/06/19 11:48:54;;;;;;;;;3.00;3.00;;;;;32.43;27.83;99769.75;6275837;20;2738154;-54
2022/06/19 11:51:30;;;;;;;;;3.00;3.00;;;;;32.73;28.52;99764.22;6330675;20;2755533;-58
2022/06/19 11:53:59;;;;;;;;;2.20;2.20;;;;;32.41;27.40;99754.41;6297126;20;2744085;-58
2022/06/19 11:56:31;;;;;;;;;3.33;3.33;;;;;32.76;27.93;99751.78;6275437;20;2748358;-58
2022/06/19 11:59:32;;;;;;;;;4.00;4.00;;;;;32.91;27.73;99743.81;6312248;20;2744114;-56
2022/06/19 12:02:02;;;;;;;;;3.00;3.00;;;;;32.85;26.77;99738.38;6310798;20;2740939;-58
2022/06/19 12:04:40;;;;;;;;;3.33;3.33;;;;;32.95;27.53;99738.63;6310654;20;2740925;-63
2022/06/19 12:07:21;;;;;;;;;4.00;4.00;;;;;33.17;28.09;99736.97;6310160;20;2747260;-62